sensor_id;sensor_type;location;lat;lon;timestamp;temperature;humidity
14016;DHT22;7083;48.854;9.158;2022-12-18T00:01:58;-11.60;99.90
14016;DHT22;7083;48.854;9.158;2022-12-18T00:04:26;-11.60;99.90
14016;DHT22;7083;48.854;9.158;2022-12-18T00:06:53;-11.20;99.90
14016;DHT22;7083;48.854;9.158;2022-12-18T00:09:20;-11.70;99.90
14016;DHT22;7083;48.854;9.158;2022-12-18T00:11:47;-11.70;99.90
14016;DHT22;7083;48.854;9.158;2022-12-18T00:14:15;-11.70;99.90
14016;DHT22;7083;48.854;9.158;2022-12-18T00:16:44;-11.70;99.90
14016;DHT22;7083;48.854;9.158;2022-12-18T00:19:11;-11.70;99.90
14016;DHT22;7083;48.854;9.158;2022-12-18T00:21:38;-11.70;99.90
14016;DHT22;7083;48.854;9.158;2022-12-18T00:24:05;-11.70;99.90
14016;DHT22;7083;48.854;9.158;2022-12-18T00:26:33;-11.80;99.90
14016;DHT22;7083;48.854;9.158;2022-12-18T00:29:03;-11.80;99.90
14016;DHT22;7083;48.854;9.158;2022-12-18T00:31:31;-11.80;99.90
14016;DHT22;7083;48.854;9.158;2022-12-18T00:33:58;-11.80;99.90
14016;DHT22;7083;48.854;9.158;2022-12-18T00:36:27;-11.90;99.90
14016;DHT22;7083;48.854;9.158;2022-12-18T00:38:54;-11.90;99.90
14016;DHT22;7083;48.854;9.158;2022-12-18T00:41:22;-11.90;99.90
14016;DHT22;7083;48.854;9.158;2022-12-18T00:44:09;-12.00;99.90
14016;DHT22;7083;48.854;9.158;2022-12-18T00:46:37;-12.00;99.90
14016;DHT22;7083;48.854;9.158;2022-12-18T00:49:04;-12.00;99.90
14016;DHT22;7083;48.854;9.158;2022-12-18T00:51:31;-11.90;99.90
14016;DHT22;7083;48.854;9.158;2022-12-18T00:53:58;-12.00;99.90
14016;DHT22;7083;48.854;9.158;2022-12-18T00:56:25;-12.00;99.90
14016;DHT22;7083;48.854;9.158;2022-12-18T00:58:51;-11.90;99.90
14016;DHT22;7083;48.854;9.158;2022-12-18T01:01:19;-12.10;99.90
14016;DHT22;7083;48.854;9.158;2022-12-18T01:03:47;-12.10;99.90
14016;DHT22;7083;48.854;9.158;2022-12-18T01:06:15;-12.00;99.90
14016;DHT22;7083;48.854;9.158;2022-12-18T01:08:42;-12.10;99.90
14016;DHT22;7083;48.854;9.158;2022-12-18T01:11:10;-12.10;99.90
14016;DHT22;7083;48.854;9.158;2022-12-18T01:13:37;-12.10;99.90
14016;DHT22;7083;48.854;9.158;2022-12-18T01:16:04;-12.10;99.90
14016;DHT22;7083;48.854;9.158;2022-12-18T01:18:31;-12.10;99.90
14016;DHT22;7083;48.854;9.158;2022-12-18T01:20:59;-12.10;99.90
14016;DHT22;7083;48.854;9.158;2022-12-18T01:23:26;-12.10;99.90
14016;DHT22;7083;48.854;9.158;2022-12-18T01:25:53;-12.10;99.90
14016;DHT22;7083;48.854;9.158;2022-12-18T01:28:19;-12.10;99.90
14016;DHT22;7083;48.854;9.158;2022-12-18T01:30:46;-11.90;99.90
14016;DHT22;7083;48.854;9.158;2022-12-18T01:33:13;-12.20;99.90
14016;DHT22;7083;48.854;9.158;2022-12-18T01:35:40;-12.20;99.90
14016;DHT22;7083;48.854;9.158;2022-12-18T01:38:09;-12.20;99.90
14016;DHT22;7083;48.854;9.158;2022-12-18T01:40:36;-12.20;99.90
14016;DHT22;7083;48.854;9.158;2022-12-18T01:43:03;-12.20;99.90
14016;DHT22;7083;48.854;9.158;2022-12-18T01:45:31;-12.10;99.90
14016;DHT22;7083;48.854;9.158;2022-12-18T01:48:00;-12.10;99.90
14016;DHT22;7083;48.854;9.158;2022-12-18T01:50:31;-12.10;99.90
14016;DHT22;7083;48.854;9.158;2022-12-18T01:53:03;-12.10;99.90
14016;DHT22;7083;48.854;9.158;2022-12-18T01:55:36;-12.10;99.90
14016;DHT22;7083;48.854;9.158;2022-12-18T01:58:04;-12.10;99.90
14016;DHT22;7083;48.854;9.158;2022-12-18T02:00:31;-12.00;99.90
14016;DHT22;7083;48.854;9.158;2022-12-18T02:02:58;-12.10;99.90
14016;DHT22;7083;48.854;9.158;2022-12-18T02:05:31;-11.90;99.90
14016;DHT22;7083;48.854;9.158;2022-12-18T02:08:07;-11.90;99.90
14016;DHT22;7083;48.854;9.158;2022-12-18T02:10:43;-11.90;99.90
14016;DHT22;7083;48.854;9.158;2022-12-18T02:13:14;-11.80;99.90
14016;DHT22;7083;48.854;9.158;2022-12-18T02:15:51;-11.70;99.90
14016;DHT22;7083;48.854;9.158;2022-12-18T02:18:23;-11.60;99.90
14016;DHT22;7083;48.854;9.158;2022-12-18T02:20:55;-11.50;99.90
14016;DHT22;7083;48.854;9.158;2022-12-18T02:23:46;-11.30;99.90
14016;DHT22;7083;48.854;9.158;2022-12-18T02:26:19;-11.20;99.90
14016;DHT22;7083;48.854;9.158;2022-12-18T02:28:53;-11.10;99.90
14016;DHT22;7083;48.854;9.158;2022-12-18T02:31:24;-11.00;99.90
14016;DHT22;7083;48.854;9.158;2022-12-18T02:33:55;-10.90;99.90
14016;DHT22;7083;48.854;9.158;2022-12-18T02:36:23;-10.90;99.90
14016;DHT22;7083;48.854;9.158;2022-12-18T02:38:52;-10.80;99.90
14016;DHT22;7083;48.854;9.158;2022-12-18T02:41:21;-10.70;99.90
14016;DHT22;7083;48.854;9.158;2022-12-18T02:43:49;-10.70;99.90
14016;DHT22;7083;48.854;9.158;2022-12-18T02:46:31;-10.60;99.90
14016;DHT22;7083;48.854;9.158;2022-12-18T02:49:05;-11.20;99.90
14016;DHT22;7083;48.854;9.158;2022-12-18T02:51:37;-10.50;99.90
14016;DHT22;7083;48.854;9.158;2022-12-18T02:54:09;-10.40;99.90
14016;DHT22;7083;48.854;9.158;2022-12-18T02:56:43;-10.40;99.90
14016;DHT22;7083;48.854;9.158;2022-12-18T02:59:14;-10.40;99.90
14016;DHT22;7083;48.854;9.158;2022-12-18T03:01:51;-10.30;99.90
14016;DHT22;7083;48.854;9.158;2022-12-18T03:04:22;-10.30;99.90
14016;DHT22;7083;48.854;9.158;2022-12-18T03:06:55;-10.30;99.90
14016;DHT22;7083;48.854;9.158;2022-12-18T03:09:27;-10.30;99.90
14016;DHT22;7083;48.854;9.158;2022-12-18T03:12:00;-10.30;99.90
14016;DHT22;7083;48.854;9.158;2022-12-18T03:14:46;-10.30;99.90
14016;DHT22;7083;48.854;9.158;2022-12-18T03:17:17;-10.30;99.90
14016;DHT22;7083;48.854;9.158;2022-12-18T03:19:46;-10.30;99.90
14016;DHT22;7083;48.854;9.158;2022-12-18T03:22:16;-10.30;99.90
14016;DHT22;7083;48.854;9.158;2022-12-18T03:24:45;-10.30;99.90
14016;DHT22;7083;48.854;9.158;2022-12-18T03:27:15;-10.30;99.90
14016;DHT22;7083;48.854;9.158;2022-12-18T03:29:46;-10.30;99.90
14016;DHT22;7083;48.854;9.158;2022-12-18T03:32:19;-10.30;99.90
14016;DHT22;7083;48.854;9.158;2022-12-18T03:34:49;-10.60;99.90
14016;DHT22;7083;48.854;9.158;2022-12-18T03:37:17;-10.30;99.90
14016;DHT22;7083;48.854;9.158;2022-12-18T03:39:44;-10.40;99.90
14016;DHT22;7083;48.854;9.158;2022-12-18T03:42:18;-10.40;99.90
14016;DHT22;7083;48.854;9.158;2022-12-18T03:44:53;-10.40;99.90
14016;DHT22;7083;48.854;9.158;2022-12-18T03:47:27;-10.40;99.90
14016;DHT22;7083;48.854;9.158;2022-12-18T03:49:57;-10.50;99.90
14016;DHT22;7083;48.854;9.158;2022-12-18T03:52:29;-10.40;99.90
14016;DHT22;7083;48.854;9.158;2022-12-18T03:54:57;-10.40;99.90
14016;DHT22;7083;48.854;9.158;2022-12-18T03:57:28;-10.50;99.90
14016;DHT22;7083;48.854;9.158;2022-12-18T03:59:58;-10.40;99.90
14016;DHT22;7083;48.854;9.158;2022-12-18T04:02:26;-10.40;99.90
14016;DHT22;7083;48.854;9.158;2022-12-18T04:04:56;-10.40;99.90
14016;DHT22;7083;48.854;9.158;2022-12-18T04:07:24;-10.40;99.90
14016;DHT22;7083;48.854;9.158;2022-12-18T04:09:54;-10.40;99.90
14016;DHT22;7083;48.854;9.158;2022-12-18T04:12:25;-10.40;99.90
14016;DHT22;7083;48.854;9.158;2022-12-18T04:14:52;-10.40;99.90
14016;DHT22;7083;48.854;9.158;2022-12-18T04:17:19;-10.40;99.90
14016;DHT22;7083;48.854;9.158;2022-12-18T04:19:46;-10.40;99.90
14016;DHT22;7083;48.854;9.158;2022-12-18T04:22:12;-10.40;99.90
14016;DHT22;7083;48.854;9.158;2022-12-18T04:24:39;-10.40;99.90
14016;DHT22;7083;48.854;9.158;2022-12-18T04:27:07;-10.50;99.90
14016;DHT22;7083;48.854;9.158;2022-12-18T04:29:35;-10.40;99.90
14016;DHT22;7083;48.854;9.158;2022-12-18T04:32:02;-10.50;99.90
14016;DHT22;7083;48.854;9.158;2022-12-18T04:34:28;-10.30;99.90
14016;DHT22;7083;48.854;9.158;2022-12-18T04:36:56;-10.40;99.90
14016;DHT22;7083;48.854;9.158;2022-12-18T04:39:22;-10.40;99.90
14016;DHT22;7083;48.854;9.158;2022-12-18T04:41:49;-10.40;99.90
14016;DHT22;7083;48.854;9.158;2022-12-18T04:44:16;-10.40;99.90
14016;DHT22;7083;48.854;9.158;2022-12-18T04:46:44;-10.40;99.90
14016;DHT22;7083;48.854;9.158;2022-12-18T04:49:10;-10.40;99.90
14016;DHT22;7083;48.854;9.158;2022-12-18T04:51:37;-10.50;99.90
14016;DHT22;7083;48.854;9.158;2022-12-18T04:54:04;-10.50;99.90
14016;DHT22;7083;48.854;9.158;2022-12-18T04:56:31;-10.50;99.90
14016;DHT22;7083;48.854;9.158;2022-12-18T04:58:58;-10.50;99.90
14016;DHT22;7083;48.854;9.158;2022-12-18T05:01:25;-10.50;99.90
14016;DHT22;7083;48.854;9.158;2022-12-18T05:03:53;-10.50;99.90
14016;DHT22;7083;48.854;9.158;2022-12-18T05:06:20;-10.50;99.90
14016;DHT22;7083;48.854;9.158;2022-12-18T05:08:46;-10.50;99.90
14016;DHT22;7083;48.854;9.158;2022-12-18T05:11:14;-10.40;99.90
14016;DHT22;7083;48.854;9.158;2022-12-18T05:13:42;-10.40;99.90
14016;DHT22;7083;48.854;9.158;2022-12-18T05:16:10;-10.30;99.90
14016;DHT22;7083;48.854;9.158;2022-12-18T05:18:37;-10.20;99.90
14016;DHT22;7083;48.854;9.158;2022-12-18T05:21:06;-10.20;99.90
14016;DHT22;7083;48.854;9.158;2022-12-18T05:23:32;-9.20;99.90
14016;DHT22;7083;48.854;9.158;2022-12-18T05:26:01;-10.20;99.90
14016;DHT22;7083;48.854;9.158;2022-12-18T05:28:31;-10.00;99.90
14016;DHT22;7083;48.854;9.158;2022-12-18T05:31:00;-10.00;99.90
14016;DHT22;7083;48.854;9.158;2022-12-18T05:33:30;-9.90;99.90
14016;DHT22;7083;48.854;9.158;2022-12-18T05:35:58;-9.80;99.90
14016;DHT22;7083;48.854;9.158;2022-12-18T05:38:28;-9.80;99.90
14016;DHT22;7083;48.854;9.158;2022-12-18T05:40:55;-9.90;99.90
14016;DHT22;7083;48.854;9.158;2022-12-18T05:43:23;-9.70;99.90
14016;DHT22;7083;48.854;9.158;2022-12-18T05:45:50;-9.80;99.90
14016;DHT22;7083;48.854;9.158;2022-12-18T05:48:18;-9.80;99.90
14016;DHT22;7083;48.854;9.158;2022-12-18T05:50:46;-9.80;99.90
14016;DHT22;7083;48.854;9.158;2022-12-18T05:53:14;-9.80;99.90
14016;DHT22;7083;48.854;9.158;2022-12-18T05:55:43;-9.90;99.90
14016;DHT22;7083;48.854;9.158;2022-12-18T05:58:12;-9.90;99.90
14016;DHT22;7083;48.854;9.158;2022-12-18T06:00:44;-10.00;99.90
14016;DHT22;7083;48.854;9.158;2022-12-18T06:03:12;-10.10;99.90
14016;DHT22;7083;48.854;9.158;2022-12-18T06:05:41;-10.10;99.90
14016;DHT22;7083;48.854;9.158;2022-12-18T06:08:09;-10.20;99.90
14016;DHT22;7083;48.854;9.158;2022-12-18T06:10:36;-10.30;99.90
14016;DHT22;7083;48.854;9.158;2022-12-18T06:13:05;-10.40;99.90
14016;DHT22;7083;48.854;9.158;2022-12-18T06:15:35;-10.40;99.90
14016;DHT22;7083;48.854;9.158;2022-12-18T06:18:02;-10.50;99.90
14016;DHT22;7083;48.854;9.158;2022-12-18T06:20:29;-10.60;99.90
14016;DHT22;7083;48.854;9.158;2022-12-18T06:22:56;-10.60;99.90
14016;DHT22;7083;48.854;9.158;2022-12-18T06:25:22;-10.60;99.90
14016;DHT22;7083;48.854;9.158;2022-12-18T06:27:49;-10.60;99.90
14016;DHT22;7083;48.854;9.158;2022-12-18T06:30:17;-10.60;99.90
14016;DHT22;7083;48.854;9.158;2022-12-18T06:32:44;-10.60;99.90
14016;DHT22;7083;48.854;9.158;2022-12-18T06:35:11;-10.70;99.90
14016;DHT22;7083;48.854;9.158;2022-12-18T06:37:37;-10.70;99.90
14016;DHT22;7083;48.854;9.158;2022-12-18T06:40:05;-10.80;99.90
14016;DHT22;7083;48.854;9.158;2022-12-18T06:42:34;-10.90;99.90
14016;DHT22;7083;48.854;9.158;2022-12-18T06:45:01;-10.90;99.90
14016;DHT22;7083;48.854;9.158;2022-12-18T06:47:29;-10.90;99.90
14016;DHT22;7083;48.854;9.158;2022-12-18T06:49:56;-11.00;99.90
14016;DHT22;7083;48.854;9.158;2022-12-18T06:52:23;-11.00;99.90
14016;DHT22;7083;48.854;9.158;2022-12-18T06:54:49;-11.00;99.90
14016;DHT22;7083;48.854;9.158;2022-12-18T06:57:16;-11.10;99.90
14016;DHT22;7083;48.854;9.158;2022-12-18T06:59:43;-11.10;99.90
14016;DHT22;7083;48.854;9.158;2022-12-18T07:02:11;-11.10;99.90
14016;DHT22;7083;48.854;9.158;2022-12-18T07:04:40;-11.10;99.90
14016;DHT22;7083;48.854;9.158;2022-12-18T07:07:06;-11.10;99.90
14016;DHT22;7083;48.854;9.158;2022-12-18T07:09:33;-11.10;99.90
14016;DHT22;7083;48.854;9.158;2022-12-18T07:12:00;-11.20;99.90
14016;DHT22;7083;48.854;9.158;2022-12-18T07:14:26;-11.20;99.90
14016;DHT22;7083;48.854;9.158;2022-12-18T07:16:53;-11.20;99.90
14016;DHT22;7083;48.854;9.158;2022-12-18T07:19:20;-11.20;99.90
14016;DHT22;7083;48.854;9.158;2022-12-18T07:21:49;-11.20;99.90
14016;DHT22;7083;48.854;9.158;2022-12-18T07:24:16;-11.30;99.90
14016;DHT22;7083;48.854;9.158;2022-12-18T07:26:46;-11.20;99.90
14016;DHT22;7083;48.854;9.158;2022-12-18T07:29:13;-11.30;99.90
14016;DHT22;7083;48.854;9.158;2022-12-18T07:31:39;-11.30;99.90
14016;DHT22;7083;48.854;9.158;2022-12-18T07:34:10;-11.30;99.90
14016;DHT22;7083;48.854;9.158;2022-12-18T07:36:37;-11.20;99.90
14016;DHT22;7083;48.854;9.158;2022-12-18T07:39:05;-11.10;99.90
14016;DHT22;7083;48.854;9.158;2022-12-18T07:41:32;-11.20;99.90
14016;DHT22;7083;48.854;9.158;2022-12-18T07:43:58;-11.20;99.90
14016;DHT22;7083;48.854;9.158;2022-12-18T07:46:25;-11.10;99.90
14016;DHT22;7083;48.854;9.158;2022-12-18T07:48:52;-11.10;99.90
14016;DHT22;7083;48.854;9.158;2022-12-18T07:51:19;-11.10;99.90
14016;DHT22;7083;48.854;9.158;2022-12-18T07:53:46;-11.00;99.90
14016;DHT22;7083;48.854;9.158;2022-12-18T07:56:14;-11.00;99.90
14016;DHT22;7083;48.854;9.158;2022-12-18T07:58:41;-10.90;99.90
14016;DHT22;7083;48.854;9.158;2022-12-18T08:01:11;-10.80;99.90
14016;DHT22;7083;48.854;9.158;2022-12-18T08:03:39;-10.70;99.90
14016;DHT22;7083;48.854;9.158;2022-12-18T08:06:07;-10.70;99.90
14016;DHT22;7083;48.854;9.158;2022-12-18T08:08:35;-10.60;99.90
14016;DHT22;7083;48.854;9.158;2022-12-18T08:11:02;-10.50;99.90
14016;DHT22;7083;48.854;9.158;2022-12-18T08:13:33;-10.50;99.90
14016;DHT22;7083;48.854;9.158;2022-12-18T08:16:01;-10.40;99.90
14016;DHT22;7083;48.854;9.158;2022-12-18T08:18:29;-10.20;99.90
14016;DHT22;7083;48.854;9.158;2022-12-18T08:20:56;-10.10;99.90
14016;DHT22;7083;48.854;9.158;2022-12-18T08:23:22;-10.00;99.90
14016;DHT22;7083;48.854;9.158;2022-12-18T08:25:49;-9.90;99.90
14016;DHT22;7083;48.854;9.158;2022-12-18T08:28:16;-9.80;99.90
14016;DHT22;7083;48.854;9.158;2022-12-18T08:30:44;-9.70;99.90
14016;DHT22;7083;48.854;9.158;2022-12-18T08:33:11;-9.60;99.90
14016;DHT22;7083;48.854;9.158;2022-12-18T08:35:38;-9.80;99.90
14016;DHT22;7083;48.854;9.158;2022-12-18T08:38:04;-9.40;99.90
14016;DHT22;7083;48.854;9.158;2022-12-18T08:40:31;-9.30;99.90
14016;DHT22;7083;48.854;9.158;2022-12-18T08:42:58;-9.20;99.90
14016;DHT22;7083;48.854;9.158;2022-12-18T08:45:44;-9.10;99.90
14016;DHT22;7083;48.854;9.158;2022-12-18T08:48:11;-9.00;99.90
14016;DHT22;7083;48.854;9.158;2022-12-18T08:50:37;-10.30;99.90
14016;DHT22;7083;48.854;9.158;2022-12-18T08:53:04;-8.90;99.90
14016;DHT22;7083;48.854;9.158;2022-12-18T08:55:31;-8.70;99.90
14016;DHT22;7083;48.854;9.158;2022-12-18T08:57:58;-8.70;99.90
14016;DHT22;7083;48.854;9.158;2022-12-18T09:00:24;-8.60;99.90
14016;DHT22;7083;48.854;9.158;2022-12-18T09:02:52;-8.50;99.90
14016;DHT22;7083;48.854;9.158;2022-12-18T09:05:19;-8.40;99.90
14016;DHT22;7083;48.854;9.158;2022-12-18T09:07:46;-8.20;99.90
14016;DHT22;7083;48.854;9.158;2022-12-18T09:10:12;-8.10;99.90
14016;DHT22;7083;48.854;9.158;2022-12-18T09:12:39;-8.00;99.90
14016;DHT22;7083;48.854;9.158;2022-12-18T09:15:06;-7.90;99.90
14016;DHT22;7083;48.854;9.158;2022-12-18T09:17:33;-7.90;99.90
14016;DHT22;7083;48.854;9.158;2022-12-18T09:20:01;-7.80;99.90
14016;DHT22;7083;48.854;9.158;2022-12-18T09:22:28;-7.60;99.90
14016;DHT22;7083;48.854;9.158;2022-12-18T09:24:54;-7.60;99.90
14016;DHT22;7083;48.854;9.158;2022-12-18T09:27:21;-7.50;99.90
14016;DHT22;7083;48.854;9.158;2022-12-18T09:29:52;-7.50;99.90
14016;DHT22;7083;48.854;9.158;2022-12-18T09:32:18;-7.40;99.90
14016;DHT22;7083;48.854;9.158;2022-12-18T09:34:45;-7.30;99.90
14016;DHT22;7083;48.854;9.158;2022-12-18T09:37:13;-7.20;99.90
14016;DHT22;7083;48.854;9.158;2022-12-18T09:39:40;-7.10;99.90
14016;DHT22;7083;48.854;9.158;2022-12-18T09:42:17;-7.00;99.90
14016;DHT22;7083;48.854;9.158;2022-12-18T09:44:49;-6.90;99.90
14016;DHT22;7083;48.854;9.158;2022-12-18T09:47:19;-6.80;99.90
14016;DHT22;7083;48.854;9.158;2022-12-18T09:49:48;-6.80;99.90
14016;DHT22;7083;48.854;9.158;2022-12-18T09:52:21;-6.70;99.90
14016;DHT22;7083;48.854;9.158;2022-12-18T09:54:53;-6.60;99.90
14016;DHT22;7083;48.854;9.158;2022-12-18T09:57:22;-6.50;99.90
14016;DHT22;7083;48.854;9.158;2022-12-18T09:59:53;-6.40;99.90
14016;DHT22;7083;48.854;9.158;2022-12-18T10:02:22;-6.40;99.90
14016;DHT22;7083;48.854;9.158;2022-12-18T10:05:04;-6.20;99.90
14016;DHT22;7083;48.854;9.158;2022-12-18T10:07:47;-6.10;99.90
14016;DHT22;7083;48.854;9.158;2022-12-18T10:10:25;-6.00;99.90
14016;DHT22;7083;48.854;9.158;2022-12-18T10:12:59;-5.90;99.90
14016;DHT22;7083;48.854;9.158;2022-12-18T10:15:34;-5.80;99.90
14016;DHT22;7083;48.854;9.158;2022-12-18T10:18:12;-5.80;99.90
14016;DHT22;7083;48.854;9.158;2022-12-18T10:20:44;-5.70;99.90
14016;DHT22;7083;48.854;9.158;2022-12-18T10:23:17;-5.60;99.90
14016;DHT22;7083;48.854;9.158;2022-12-18T10:25:52;-5.60;99.90
14016;DHT22;7083;48.854;9.158;2022-12-18T10:28:20;-5.50;99.90
14016;DHT22;7083;48.854;9.158;2022-12-18T10:30:48;-5.40;99.90
14016;DHT22;7083;48.854;9.158;2022-12-18T10:33:17;-5.30;99.90
14016;DHT22;7083;48.854;9.158;2022-12-18T10:35:45;-5.30;99.90
14016;DHT22;7083;48.854;9.158;2022-12-18T10:38:26;-5.30;99.90
14016;DHT22;7083;48.854;9.158;2022-12-18T10:40:55;-5.10;99.90
14016;DHT22;7083;48.854;9.158;2022-12-18T10:43:25;-4.90;99.90
14016;DHT22;7083;48.854;9.158;2022-12-18T10:46:05;-4.90;99.90
14016;DHT22;7083;48.854;9.158;2022-12-18T10:48:41;-4.70;99.90
14016;DHT22;7083;48.854;9.158;2022-12-18T10:51:20;-4.70;99.90
14016;DHT22;7083;48.854;9.158;2022-12-18T10:53:52;-4.60;99.90
14016;DHT22;7083;48.854;9.158;2022-12-18T10:56:20;-4.50;99.90
14016;DHT22;7083;48.854;9.158;2022-12-18T10:58:56;-4.40;99.90
14016;DHT22;7083;48.854;9.158;2022-12-18T11:01:23;-4.30;99.90
14016;DHT22;7083;48.854;9.158;2022-12-18T11:03:59;-4.20;99.90
14016;DHT22;7083;48.854;9.158;2022-12-18T11:06:26;-4.10;99.90
14016;DHT22;7083;48.854;9.158;2022-12-18T11:08:59;-4.00;99.90
14016;DHT22;7083;48.854;9.158;2022-12-18T11:14:24;-3.80;99.90
14016;DHT22;7083;48.854;9.158;2022-12-18T11:24:06;-3.50;99.90
14016;DHT22;7083;48.854;9.158;2022-12-18T11:27:21;-3.50;99.90
14016;DHT22;7083;48.854;9.158;2022-12-18T11:30:28;-3.40;99.90
14016;DHT22;7083;48.854;9.158;2022-12-18T12:31:36;-1.90;99.90
14016;DHT22;7083;48.854;9.158;2022-12-18T12:34:54;-1.60;99.90
14016;DHT22;7083;48.854;9.158;2022-12-18T12:37:48;-1.40;99.90
14016;DHT22;7083;48.854;9.158;2022-12-18T12:40:18;-1.60;99.90
14016;DHT22;7083;48.854;9.158;2022-12-18T12:42:49;-1.50;99.90
14016;DHT22;7083;48.854;9.158;2022-12-18T12:45:47;-1.50;99.90
14016;DHT22;7083;48.854;9.158;2022-12-18T12:48:34;-1.50;99.90
14016;DHT22;7083;48.854;9.158;2022-12-18T12:51:04;-1.10;99.90
14016;DHT22;7083;48.854;9.158;2022-12-18T12:56:44;-1.00;99.90
14016;DHT22;7083;48.854;9.158;2022-12-18T12:59:47;-1.00;99.90
14016;DHT22;7083;48.854;9.158;2022-12-18T13:02:22;-1.10;99.90
14016;DHT22;7083;48.854;9.158;2022-12-18T13:05:00;-1.20;99.90
14016;DHT22;7083;48.854;9.158;2022-12-18T13:07:32;-1.00;99.90
14016;DHT22;7083;48.854;9.158;2022-12-18T13:10:24;-1.00;99.90
14016;DHT22;7083;48.854;9.158;2022-12-18T13:12:58;-0.90;99.90
14016;DHT22;7083;48.854;9.158;2022-12-18T13:15:36;-0.90;99.90
14016;DHT22;7083;48.854;9.158;2022-12-18T13:18:05;-0.90;99.90
14016;DHT22;7083;48.854;9.158;2022-12-18T13:20:38;-0.80;99.90
14016;DHT22;7083;48.854;9.158;2022-12-18T13:23:25;-0.80;99.90
14016;DHT22;7083;48.854;9.158;2022-12-18T13:25:53;-0.80;99.90
14016;DHT22;7083;48.854;9.158;2022-12-18T13:28:22;-0.80;99.90
14016;DHT22;7083;48.854;9.158;2022-12-18T13:30:52;-0.80;99.90
14016;DHT22;7083;48.854;9.158;2022-12-18T13:33:49;-0.70;99.90
14016;DHT22;7083;48.854;9.158;2022-12-18T13:36:30;-0.70;99.90
14016;DHT22;7083;48.854;9.158;2022-12-18T13:39:23;-0.70;99.90
14016;DHT22;7083;48.854;9.158;2022-12-18T13:41:52;-0.60;99.90
14016;DHT22;7083;48.854;9.158;2022-12-18T13:44:28;-0.60;99.90
14016;DHT22;7083;48.854;9.158;2022-12-18T13:46:57;-0.60;99.90
14016;DHT22;7083;48.854;9.158;2022-12-18T13:49:26;-0.60;99.90
14016;DHT22;7083;48.854;9.158;2022-12-18T13:51:56;-0.50;99.90
14016;DHT22;7083;48.854;9.158;2022-12-18T13:54:33;-0.60;99.90
14016;DHT22;7083;48.854;9.158;2022-12-18T13:57:01;-0.60;99.90
14016;DHT22;7083;48.854;9.158;2022-12-18T13:59:35;-0.70;99.90
14016;DHT22;7083;48.854;9.158;2022-12-18T14:02:11;-0.70;99.90
14016;DHT22;7083;48.854;9.158;2022-12-18T14:04:39;-0.70;99.90
14016;DHT22;7083;48.854;9.158;2022-12-18T14:07:11;-0.80;99.90
14016;DHT22;7083;48.854;9.158;2022-12-18T14:09:42;-0.80;99.90
14016;DHT22;7083;48.854;9.158;2022-12-18T14:12:15;-0.90;99.90
14016;DHT22;7083;48.854;9.158;2022-12-18T14:14:56;-1.00;99.90
14016;DHT22;7083;48.854;9.158;2022-12-18T14:17:23;-1.00;99.90
14016;DHT22;7083;48.854;9.158;2022-12-18T14:19:51;-1.10;99.90
14016;DHT22;7083;48.854;9.158;2022-12-18T14:22:20;-1.20;99.90
14016;DHT22;7083;48.854;9.158;2022-12-18T14:24:58;-1.20;99.90
14016;DHT22;7083;48.854;9.158;2022-12-18T14:27:30;-1.30;99.90
14016;DHT22;7083;48.854;9.158;2022-12-18T14:29:57;-1.40;99.90
14016;DHT22;7083;48.854;9.158;2022-12-18T14:32:24;-1.40;99.90
14016;DHT22;7083;48.854;9.158;2022-12-18T14:34:52;-1.50;99.90
14016;DHT22;7083;48.854;9.158;2022-12-18T14:37:24;-1.60;99.90
14016;DHT22;7083;48.854;9.158;2022-12-18T14:39:56;-1.70;99.90
14016;DHT22;7083;48.854;9.158;2022-12-18T14:42:24;-1.70;99.90
14016;DHT22;7083;48.854;9.158;2022-12-18T14:47:54;-1.90;99.90
14016;DHT22;7083;48.854;9.158;2022-12-18T14:50:20;-2.00;99.90
14016;DHT22;7083;48.854;9.158;2022-12-18T14:52:48;-2.10;99.90
14016;DHT22;7083;48.854;9.158;2022-12-18T14:55:16;-2.20;99.90
14016;DHT22;7083;48.854;9.158;2022-12-18T14:57:43;-2.30;99.90
14016;DHT22;7083;48.854;9.158;2022-12-18T15:00:16;-2.40;99.90
14016;DHT22;7083;48.854;9.158;2022-12-18T15:02:45;-2.60;99.90
14016;DHT22;7083;48.854;9.158;2022-12-18T15:05:18;-2.70;99.90
14016;DHT22;7083;48.854;9.158;2022-12-18T15:14:24;-2.70;99.90
14016;DHT22;7083;48.854;9.158;2022-12-18T15:16:56;-3.20;99.90
14016;DHT22;7083;48.854;9.158;2022-12-18T15:19:31;-3.30;99.90
14016;DHT22;7083;48.854;9.158;2022-12-18T15:21:58;-3.40;99.90
14016;DHT22;7083;48.854;9.158;2022-12-18T15:24:29;-3.50;99.90
14016;DHT22;7083;48.854;9.158;2022-12-18T15:26:56;-3.60;99.90
14016;DHT22;7083;48.854;9.158;2022-12-18T15:29:25;-3.70;99.90
14016;DHT22;7083;48.854;9.158;2022-12-18T15:32:00;-3.80;99.90
14016;DHT22;7083;48.854;9.158;2022-12-18T15:34:27;-3.90;99.90
14016;DHT22;7083;48.854;9.158;2022-12-18T15:36:54;-3.90;99.90
14016;DHT22;7083;48.854;9.158;2022-12-18T15:39:21;-4.00;99.90
14016;DHT22;7083;48.854;9.158;2022-12-18T15:41:48;-4.10;99.90
14016;DHT22;7083;48.854;9.158;2022-12-18T15:44:33;-4.20;99.90
14016;DHT22;7083;48.854;9.158;2022-12-18T15:47:00;-4.30;99.90
14016;DHT22;7083;48.854;9.158;2022-12-18T15:49:27;-4.30;99.90
14016;DHT22;7083;48.854;9.158;2022-12-18T15:51:56;-4.40;99.90
14016;DHT22;7083;48.854;9.158;2022-12-18T15:54:23;-4.50;99.90
14016;DHT22;7083;48.854;9.158;2022-12-18T15:57:03;-4.80;99.90
14016;DHT22;7083;48.854;9.158;2022-12-18T15:59:49;-4.60;99.90
14016;DHT22;7083;48.854;9.158;2022-12-18T16:02:17;-4.60;99.90
14016;DHT22;7083;48.854;9.158;2022-12-18T16:04:44;-4.70;99.90
14016;DHT22;7083;48.854;9.158;2022-12-18T16:07:11;-4.70;99.90
14016;DHT22;7083;48.854;9.158;2022-12-18T16:09:38;-4.70;99.90
14016;DHT22;7083;48.854;9.158;2022-12-18T16:12:06;-4.70;99.90
14016;DHT22;7083;48.854;9.158;2022-12-18T16:14:36;-4.70;99.90
14016;DHT22;7083;48.854;9.158;2022-12-18T16:17:09;-4.70;99.90
14016;DHT22;7083;48.854;9.158;2022-12-18T16:19:36;-4.70;99.90
14016;DHT22;7083;48.854;9.158;2022-12-18T16:22:03;-4.60;99.90
14016;DHT22;7083;48.854;9.158;2022-12-18T16:24:31;-4.70;99.90
14016;DHT22;7083;48.854;9.158;2022-12-18T16:26:59;-4.60;99.90
14016;DHT22;7083;48.854;9.158;2022-12-18T16:29:28;-4.50;99.90
14016;DHT22;7083;48.854;9.158;2022-12-18T16:31:56;-4.50;99.90
14016;DHT22;7083;48.854;9.158;2022-12-18T16:34:25;-4.50;99.90
14016;DHT22;7083;48.854;9.158;2022-12-18T16:36:53;-4.50;99.90
14016;DHT22;7083;48.854;9.158;2022-12-18T16:39:20;-4.50;99.90
14016;DHT22;7083;48.854;9.158;2022-12-18T16:41:47;-4.50;99.90
14016;DHT22;7083;48.854;9.158;2022-12-18T16:44:14;-4.40;99.90
14016;DHT22;7083;48.854;9.158;2022-12-18T16:46:42;-4.40;99.90
14016;DHT22;7083;48.854;9.158;2022-12-18T16:49:11;-4.40;99.90
14016;DHT22;7083;48.854;9.158;2022-12-18T16:51:40;-4.30;99.90
14016;DHT22;7083;48.854;9.158;2022-12-18T16:54:07;-4.30;99.90
14016;DHT22;7083;48.854;9.158;2022-12-18T16:56:34;-4.30;99.90
14016;DHT22;7083;48.854;9.158;2022-12-18T16:59:03;-4.20;99.90
14016;DHT22;7083;48.854;9.158;2022-12-18T17:01:31;-4.20;99.90
14016;DHT22;7083;48.854;9.158;2022-12-18T17:04:00;-4.20;99.90
14016;DHT22;7083;48.854;9.158;2022-12-18T17:06:28;-4.10;99.90
14016;DHT22;7083;48.854;9.158;2022-12-18T17:08:58;-4.10;99.90
14016;DHT22;7083;48.854;9.158;2022-12-18T17:11:27;-4.00;99.90
14016;DHT22;7083;48.854;9.158;2022-12-18T17:13:54;-4.00;99.90
14016;DHT22;7083;48.854;9.158;2022-12-18T17:16:21;-3.90;99.90
14016;DHT22;7083;48.854;9.158;2022-12-18T17:18:48;-3.90;99.90